Time;durP1;ratioP1;P1;durP2;ratioP2;P2;SDS_P1;SDS_P2;PMS_P1;PMS_P2;Temp;Humidity;BMP_temperature;BMP_pressure;BME280_temperature;BME280_humidity;BME280_pressure;Samples;Min_cycle;Max_cycle;Signal;HPM_P1;HPM_P2
2022/06/14 00:00:53;;;;;;;378.77;264.80;;;;;;;21.67;85.75;99395.88;409922;24;868;-76
2022/06/14 00:00:55;;;;;;;373.10;256.25;;;;;;;21.64;86.25;99391.69;411800;24;1661;-76
2022/06/14 00:01:05;;;;;;;376.95;259.17;;;;;;;21.62;86.38;99390.97;409540;24;909;-76
2022/06/14 00:01:16;;;;;;;377.50;260.80;;;;;;;21.63;86.06;99394.50;407966;24;1314;-76
2022/06/14 00:01:26;;;;;;;380.50;264.73;;;;;;;21.63;86.58;99394.50;409816;24;1297;-76
2022/06/14 00:01:37;;;;;;;378.50;260.23;;;;;;;21.65;85.83;99395.19;409938;24;885;-76
2022/06/14 00:01:47;;;;;;;378.83;261.50;;;;;;;21.64;86.01;99396.16;409985;24;857;-76
2022/06/14 00:01:57;;;;;;;379.13;261.37;;;;;;;21.63;86.08;99399.81;409787;24;1444;-75
2022/06/14 00:02:08;;;;;;;381.10;268.03;;;;;;;21.61;86.40;99391.97;411614;24;1308;-75
2022/06/14 00:02:18;;;;;;;380.45;266.40;;;;;;;21.64;86.41;99397.00;411715;24;1247;-76
2022/06/14 00:02:29;;;;;;;381.07;265.17;;;;;;;21.64;86.36;99391.69;411908;24;1127;-76
2022/06/14 00:02:39;;;;;;;377.93;258.13;;;;;;;21.67;86.56;99395.88;413589;23;810;-76
2022/06/14 00:02:49;;;;;;;376.65;257.10;;;;;;;21.65;86.26;99403.19;415616;23;1001;-76
2022/06/14 00:03:00;;;;;;;376.30;256.77;;;;;;;21.67;86.45;99396.69;413694;23;879;-75
2022/06/14 00:03:10;;;;;;;375.60;256.30;;;;;;;21.66;86.27;99397.69;413171;23;1177;-75
2022/06/14 00:03:29;;;;;;;377.83;256.00;;;;;;;21.67;85.84;99385.22;411404;24;900;-75
2022/06/14 00:03:41;;;;;;;378.10;258.77;;;;;;;21.68;86.31;99397.53;415612;23;860;-75
2022/06/14 00:03:51;;;;;;;378.00;257.35;;;;;;;21.64;86.40;99391.69;415531;23;1250;-75
2022/06/14 00:04:02;;;;;;;377.87;255.83;;;;;;;21.65;86.16;99400.53;417618;23;830;-75
2022/06/14 00:04:12;;;;;;;377.45;255.65;;;;;;;21.64;86.09;99397.00;411869;24;917;-75
2022/06/14 00:04:22;;;;;;;377.90;256.33;;;;;;;21.65;86.08;99392.53;409510;24;1474;-75
2022/06/14 00:04:33;;;;;;;378.33;255.03;;;;;;;21.62;85.97;99390.13;411820;24;837;-75
2022/06/14 00:04:43;;;;;;;376.88;255.02;;;;;;;21.61;86.18;99396.44;411791;24;1119;-75
2022/06/14 00:04:54;;;;;;;374.83;254.33;;;;;;;21.61;86.05;99397.28;411869;24;904;-75
2022/06/14 00:05:05;;;;;;;374.85;254.80;;;;;;;21.62;86.07;99398.13;409837;24;1171;-75
2022/06/14 00:05:15;;;;;;;376.15;253.13;;;;;;;21.62;86.30;99392.81;409907;24;842;-75
2022/06/14 00:05:26;;;;;;;377.73;257.40;;;;;;;21.62;86.29;99392.81;411719;24;1147;-75
2022/06/14 00:05:36;;;;;;;378.10;257.00;;;;;;;21.60;86.64;99389.44;411733;24;1906;-75
2022/06/14 00:05:47;;;;;;;379.70;259.73;;;;;;;21.58;86.42;99398.41;413698;23;1238;-75
2022/06/14 00:05:59;;;;;;;379.05;258.42;;;;;;;21.58;86.63;99393.06;409891;24;852;-75
2022/06/14 00:06:13;;;;;;;378.25;258.55;;;;;;;21.58;86.74;99392.22;411788;24;916;-75
2022/06/14 00:06:25;;;;;;;378.17;256.77;;;;;;;21.59;86.59;99393.91;411802;24;904;-75
2022/06/14 00:06:35;;;;;;;379.48;257.67;;;;;;;21.57;86.39;99395.88;409866;24;861;-75
2022/06/14 00:06:46;;;;;;;380.30;259.15;;;;;;;21.56;86.68;99392.38;409797;24;1307;-75
2022/06/14 00:06:56;;;;;;;380.37;260.43;;;;;;;21.56;87.09;99397.69;410039;24;1306;-75
2022/06/14 00:07:07;;;;;;;377.73;257.77;;;;;;;21.56;86.95;99394.19;409719;24;1201;-75
2022/06/14 00:07:17;;;;;;;379.03;259.00;;;;;;;21.58;86.56;99393.06;411671;24;1254;-75
2022/06/14 00:07:28;;;;;;;379.35;260.23;;;;;;;21.57;86.58;99396.72;413629;23;979;-75
2022/06/14 00:07:38;;;;;;;381.37;263.23;;;;;;;21.55;86.88;99393.34;409823;24;859;-75
2022/06/14 00:07:48;;;;;;;378.17;259.47;;;;;;;21.58;86.50;99392.22;409781;24;1045;-75
2022/06/14 00:07:59;;;;;;;376.17;259.98;;;;;;;21.56;86.47;99389.72;407875;24;1367;-75
2022/06/14 00:08:10;;;;;;;376.33;261.27;;;;;;;21.56;86.58;99395.03;409905;24;1413;-75
2022/06/14 00:08:21;;;;;;;377.70;261.63;;;;;;;21.57;86.86;99396.72;409860;24;1066;-75
2022/06/14 00:08:32;;;;;;;377.40;258.85;;;;;;;21.54;86.82;99397.00;409636;24;1026;-77
2022/06/14 00:08:42;;;;;;;377.23;260.10;;;;;;;21.56;86.78;99395.03;409808;24;1163;-77
2022/06/14 00:08:53;;;;;;;380.58;263.50;;;;;;;21.57;87.03;99391.38;409844;24;904;-76
2022/06/14 00:09:03;;;;;;;379.83;261.37;;;;;;;21.57;87.06;99388.72;411940;24;782;-76
2022/06/14 00:09:14;;;;;;;379.77;257.83;;;;;;;21.57;87.17;99390.56;411565;23;1307;-76
2022/06/14 00:09:24;;;;;;;380.67;259.00;;;;;;;21.57;86.87;99394.06;409714;24;829;-76
2022/06/14 00:09:34;;;;;;;382.27;259.48;;;;;;;21.57;87.15;99395.88;413730;23;1266;-76
2022/06/14 00:09:45;;;;;;;381.60;258.87;;;;;;;21.53;86.92;99395.31;415570;23;1092;-76
2022/06/14 00:09:55;;;;;;;379.33;258.00;;;;;;;21.52;87.08;99393.63;413568;23;1183;-75
2022/06/14 00:10:06;;;;;;;378.33;259.53;;;;;;;21.53;86.95;99395.31;411674;24;1328;-75
2022/06/14 00:10:16;;;;;;;379.77;261.08;;;;;;;21.53;87.34;99395.31;407913;24;1267;-75
2022/06/14 00:10:27;;;;;;;378.70;257.63;;;;;;;21.52;87.20;99388.28;407918;24;818;-75
2022/06/14 00:10:37;;;;;;;377.73;257.35;;;;;;;21.52;87.26;99393.63;411729;24;1138;-75
2022/06/14 00:10:48;;;;;;;378.23;258.77;;;;;;;21.53;86.94;99392.66;409806;23;1446;-75
2022/06/14 00:11:00;;;;;;;378.80;263.17;;;;;;;21.53;87.38;99395.31;407945;24;849;-75
2022/06/14 00:11:21;;;;;;;377.27;260.70;;;;;;;21.53;87.02;99389.97;410034;24;935;-75
2022/06/14 00:11:33;;;;;;;378.65;258.80;;;;;;;21.52;87.15;99393.63;409812;24;938;-75
2022/06/14 00:11:46;;;;;;;379.48;261.15;;;;;;;21.50;87.44;99390.25;409971;24;853;-75
2022/06/14 00:11:56;;;;;;;380.02;264.02;;;;;;;21.50;87.43;99395.56;408048;24;865;-75
2022/06/14 00:12:07;;;;;;;379.05;261.90;;;;;;;21.50;87.60;99395.56;410088;24;861;-75
2022/06/14 00:12:17;;;;;;;377.70;260.60;;;;;;;21.50;87.25;99390.25;411482;23;1429;-75
2022/06/14 00:12:28;;;;;;;376.33;260.50;;;;;;;21.49;87.35;99393.91;410755;24;996;-75
2022/06/14 00:12:38;;;;;;;377.40;264.10;;;;;;;21.52;87.71;99398.09;409666;24;1252;-75
2022/06/14 00:12:49;;;;;;;382.33;264.55;;;;;;;21.51;87.71;99391.94;409593;24;994;-75
2022/06/14 00:12:59;;;;;;;382.03;261.43;;;;;;;21.51;87.67;99391.94;411706;24;1221;-76
2022/06/14 00:13:10;;;;;;;381.97;262.67;;;;;;;21.53;87.88;99389.13;413613;23;1186;-75
2022/06/14 00:13:20;;;;;;;377.27;262.13;;;;;;;21.54;87.31;99399.66;411702;24;1214;-75
2022/06/14 00:13:31;;;;;;;380.90;268.17;;;;;;;21.52;87.78;99387.47;411786;24;1036;-75
2022/06/14 00:13:41;;;;;;;381.47;265.97;;;;;;;21.54;87.79;99390.81;413736;23;851;-75
2022/06/14 00:13:53;;;;;;;380.17;264.63;;;;;;;21.56;87.80;99394.19;411835;24;1223;-77
2022/06/14 00:14:04;;;;;;;377.38;257.30;;;;;;;21.55;87.34;99390.69;409786;24;1485;-76
2022/06/14 00:14:14;;;;;;;375.88;258.52;;;;;;;21.56;87.60;99389.72;409731;24;1283;-75
2022/06/14 00:14:25;;;;;;;378.97;261.73;;;;;;;21.56;87.43;99395.03;409577;24;847;-75
2022/06/14 00:14:35;;;;;;;382.10;265.93;;;;;;;21.56;87.86;99392.38;409703;24;1241;-75
2022/06/14 00:14:46;;;;;;;385.25;265.83;;;;;;;21.57;87.80;99396.72;409772;24;1273;-75
2022/06/14 00:14:57;;;;;;;384.40;263.57;;;;;;;21.58;87.34;99387.75;409727;24;1166;-75
2022/06/14 00:15:07;;;;;;;380.77;262.10;;;;;;;21.60;87.58;99392.09;409900;24;782;-75
2022/06/14 00:15:18;;;;;;;382.83;261.52;;;;;;;21.58;87.64;99393.06;409760;24;775;-75
2022/06/14 00:15:28;;;;;;;384.42;262.02;;;;;;;21.57;87.43;99395.88;409750;24;1369;-75
2022/06/14 00:15:39;;;;;;;385.80;261.03;;;;;;;21.57;87.22;99390.56;413442;23;1181;-75
2022/06/14 00:15:49;;;;;;;381.90;261.85;;;;;;;21.57;87.15;99391.38;417537;23;944;-75
2022/06/14 00:16:00;;;;;;;380.93;262.77;;;;;;;21.57;87.41;99391.38;415642;23;1359;-76
2022/06/14 00:16:10;;;;;;;379.25;262.83;;;;;;;21.56;87.28;99388.88;411714;24;1186;-76
2022/06/14 00:16:21;;;;;;;378.50;261.20;;;;;;;21.57;87.17;99395.88;411856;24;953;-76
2022/06/14 00:16:31;;;;;;;377.13;260.05;;;;;;;21.55;87.44;99388.03;409906;24;942;-76
2022/06/14 00:16:42;;;;;;;378.10;260.80;;;;;;;21.56;87.53;99388.88;407939;24;845;-76
2022/06/14 00:16:52;;;;;;;379.65;264.05;;;;;;;21.57;87.21;99393.22;407870;24;1372;-76
2022/06/14 00:17:03;;;;;;;380.70;266.70;;;;;;;21.56;87.46;99387.03;407965;24;1157;-76
2022/06/14 00:17:13;;;;;;;379.75;266.80;;;;;;;21.56;87.47;99389.72;411556;24;1183;-76
2022/06/14 00:17:24;;;;;;;379.53;264.40;;;;;;;21.56;87.49;99392.38;413801;23;822;-76
2022/06/14 00:17:35;;;;;;;379.55;264.65;;;;;;;21.56;87.04;99392.38;411600;23;1237;-76
2022/06/14 00:17:46;;;;;;;380.02;264.38;;;;;;;21.54;87.21;99389.00;412987;23;1272;-75
2022/06/14 00:17:56;;;;;;;380.60;266.25;;;;;;;21.53;87.45;99389.97;413466;23;1298;-75
2022/06/14 00:18:06;;;;;;;378.60;261.57;;;;;;;21.55;87.21;99387.19;411927;24;904;-75
2022/06/14 00:18:17;;;;;;;374.38;259.38;;;;;;;21.54;87.28;99391.66;409972;24;961;-75
2022/06/14 00:18:27;;;;;;;375.00;260.57;;;;;;;21.53;87.68;99389.97;409866;24;828;-75
2022/06/14 00:18:38;;;;;;;376.98;262.35;;;;;;;21.52;87.58;99385.63;411840;24;1389;-75
2022/06/14 00:18:48;;;;;;;382.70;267.50;;;;;;;21.54;87.62;99393.50;413789;23;1092;-75
2022/06/14 00:19:01;;;;;;;382.27;264.65;;;;;;;21.54;87.04;99394.31;411760;24;793;-75
2022/06/14 00:19:11;;;;;;;379.83;262.63;;;;;;;21.52;87.26;99390.13;411667;24;904;-75
2022/06/14 00:19:22;;;;;;;377.08;255.50;;;;;;;21.50;87.71;99389.41;411691;24;834;-75
2022/06/14 00:19:32;;;;;;;378.77;257.90;;;;;;;21.51;87.42;99383.94;411746;23;1564;-75
2022/06/14 00:19:42;;;;;;;381.83;260.97;;;;;;;21.52;87.85;99384.78;411803;24;1094;-75
2022/06/14 00:19:53;;;;;;;383.27;266.67;;;;;;;21.51;87.17;99391.94;409899;24;723;-75
2022/06/14 00:20:04;;;;;;;382.17;267.67;;;;;;;21.50;87.66;99390.25;409716;24;1231;-75
2022/06/14 00:20:14;;;;;;;381.10;265.35;;;;;;;21.51;87.68;99389.28;411706;24;915;-75
2022/06/14 00:20:25;;;;;;;381.60;264.27;;;;;;;21.50;87.37;99395.56;409896;24;872;-75
2022/06/14 00:20:35;;;;;;;381.20;258.33;;;;;;;21.50;87.38;99390.25;411704;24;876;-75
2022/06/14 00:20:46;;;;;;;382.85;260.15;;;;;;;21.50;87.53;99390.25;409817;24;1382;-75
2022/06/14 00:20:56;;;;;;;382.15;261.02;;;;;;;21.49;87.28;99388.56;411668;24;1076;-75
2022/06/14 00:21:07;;;;;;;380.90;264.47;;;;;;;21.46;87.66;99386.19;409772;24;1194;-75
2022/06/14 00:21:18;;;;;;;381.60;265.05;;;;;;;21.45;87.86;99384.50;408021;24;804;-75
2022/06/14 00:21:28;;;;;;;382.23;265.80;;;;;;;21.45;87.44;99392.47;409708;24;1364;-75
2022/06/14 00:21:39;;;;;;;383.50;267.77;;;;;;;21.44;87.78;99390.81;410907;24;1379;-75
2022/06/14 00:21:49;;;;;;;381.20;267.80;;;;;;;;;;409707;24;1273;-75
2022/06/14 00:22:02;;;;;;;382.20;269.90;;;;;;;21.42;87.53;99390.09;407731;24;811;-75
2022/06/14 00:22:14;;;;;;;381.35;268.15;;;;;;;21.45;87.39;99391.66;411574;24;1289;-75
2022/06/14 00:22:24;;;;;;;378.88;265.02;;;;;;;21.46;87.52;99393.31;411528;24;1446;-75
2022/06/14 00:22:34;;;;;;;375.30;262.80;;;;;;;;;;411933;24;831;-75
2022/06/14 00:22:45;;;;;;;374.90;260.10;;;;;;;21.44;87.59;99382.81;411736;24;1259;-75
2022/06/14 00:22:55;;;;;;;375.80;259.58;;;;;;;21.44;87.77;99390.81;409803;24;1035;-75
2022/06/14 00:23:06;;;;;;;375.90;260.10;;;;;;;21.47;87.57;99395.84;409897;24;1314;-75
2022/06/14 00:23:16;;;;;;;378.13;266.40;;;;;;;21.47;87.30;99398.53;407863;24;1286;-75
2022/06/14 00:23:27;;;;;;;376.90;261.50;;;;;;;21.47;87.71;99395.00;407931;24;901;-75
2022/06/14 00:23:38;;;;;;;377.17;258.98;;;;;;;21.44;87.69;99388.13;409768;24;889;-75
2022/06/14 00:23:48;;;;;;;376.40;256.55;;;;;;;21.44;87.65;99385.47;409936;24;853;-75
2022/06/14 00:24:01;;;;;;;377.67;260.63;;;;;;;21.42;87.61;99392.75;409770;24;766;-75
2022/06/14 00:24:13;;;;;;;382.38;263.65;;;;;;;21.42;87.65;99398.09;409777;24;861;-75
2022/06/14 00:24:26;;;;;;;383.55;264.88;;;;;;;21.42;88.10;99392.75;409631;24;1018;-75
2022/06/14 00:24:36;;;;;;;386.23;268.00;;;;;;;21.42;88.10;99390.09;411632;24;4672;-75
2022/06/14 00:24:47;;;;;;;382.27;263.35;;;;;;;21.42;88.06;99391.91;409647;24;1195;-75
2022/06/14 00:24:57;;;;;;;381.90;263.13;;;;;;;21.43;87.77;99393.59;411715;24;833;-75
2022/06/14 00:25:08;;;;;;;380.83;261.37;;;;;;;21.43;87.74;99393.59;409779;24;861;-75
2022/06/14 00:25:29;;;;;;;384.10;265.02;;;;;;;21.43;87.97;99390.94;411845;24;1242;-75
2022/06/14 00:25:47;;;;;;;384.00;267.83;;;;;;;21.43;87.86;99394.44;409742;24;1897;-75
2022/06/14 00:25:58;;;;;;;380.45;264.55;;;;;;;21.45;87.64;99397.81;411791;24;866;-75
2022/06/14 00:26:11;;;;;;;378.63;259.27;;;;;;;21.46;87.83;99393.31;413622;23;1448;-75
2022/06/14 00:26:21;;;;;;;380.25;261.50;;;;;;;21.46;87.84;99399.50;411754;24;873;-75
2022/06/14 00:26:32;;;;;;;381.37;265.03;;;;;;;21.48;87.87;99396.69;411869;24;912;-75
2022/06/14 00:26:42;;;;;;;382.85;267.25;;;;;;;21.47;87.58;99395.84;411515;24;1477;-75
2022/06/14 00:26:52;;;;;;;383.45;267.40;;;;;;;21.46;87.67;99396.84;411735;24;1199;-75
2022/06/14 00:27:03;;;;;;;382.83;265.20;;;;;;;21.47;87.66;99395.84;411720;24;908;-75
2022/06/14 00:27:13;;;;;;;383.38;259.33;;;;;;;21.46;87.66;99394.16;411724;24;1373;-76
2022/06/14 00:27:24;;;;;;;379.40;258.30;;;;;;;21.45;87.71;99397.81;411816;24;1280;-76
2022/06/14 00:27:34;;;;;;;378.20;256.45;;;;;;;21.46;88.01;99399.50;411817;24;1040;-76
2022/06/14 00:27:45;;;;;;;376.43;261.37;;;;;;;21.46;87.77;99393.31;413743;23;878;-76
2022/06/14 00:27:55;;;;;;;378.53;262.20;;;;;;;21.47;88.08;99397.69;411670;24;994;-76
2022/06/14 00:28:07;;;;;;;380.73;262.75;;;;;;;21.48;88.10;99397.53;409875;24;948;-76
2022/06/14 00:28:17;;;;;;;380.00;260.45;;;;;;;21.46;87.77;99402.16;413828;23;941;-76
2022/06/14 00:28:29;;;;;;;376.87;257.73;;;;;;;21.47;87.73;99401.19;411728;24;876;-76
2022/06/14 00:28:42;;;;;;;377.52;262.33;;;;;;;21.49;87.74;99393.06;413744;23;746;-76
2022/06/14 00:28:52;;;;;;;380.35;264.30;;;;;;;21.47;87.83;99398.53;415790;23;835;-75
2022/06/14 00:29:03;;;;;;;381.90;263.47;;;;;;;21.48;87.71;99399.34;415705;23;1045;-75
2022/06/14 00:29:13;;;;;;;379.23;260.35;;;;;;;21.45;87.98;99397.81;413684;23;1500;-75
2022/06/14 00:29:24;;;;;;;380.03;261.23;;;;;;;21.46;88.31;99402.16;413648;23;1108;-76
2022/06/14 00:29:34;;;;;;;379.40;263.08;;;;;;;21.46;88.06;99394.16;411821;24;1368;-76
2022/06/14 00:29:44;;;;;;;379.47;262.83;;;;;;;21.47;88.15;99398.53;409837;24;936;-76
2022/06/14 00:29:55;;;;;;;381.00;263.47;;;;;;;21.46;88.27;99396.00;409739;24;2170;-76
2022/06/14 00:30:05;;;;;;;381.27;260.27;;;;;;;21.45;88.23;99392.47;409895;24;719;-76
2022/06/14 00:30:16;;;;;;;381.27;262.52;;;;;;;21.46;87.93;99393.31;409837;24;1015;-76
2022/06/14 00:30:26;;;;;;;379.87;262.43;;;;;;;21.46;88.15;99398.66;413757;23;879;-76
2022/06/14 00:30:38;;;;;;;377.55;263.08;;;;;;;21.45;88.28;99400.47;413760;23;826;-75
2022/06/14 00:30:50;;;;;;;376.15;263.25;;;;;;;21.44;88.11;99390.81;412534;23;1539;-75
2022/06/14 00:31:04;;;;;;;379.20;263.95;;;;;;;21.44;88.37;99390.81;409676;24;887;-75
2022/06/14 00:31:17;;;;;;;385.90;267.90;;;;;;;21.44;88.08;99390.81;409655;24;1283;-77
2022/06/14 00:31:27;;;;;;;388.30;268.92;;;;;;;21.42;88.04;99392.75;409736;24;1014;-75
2022/06/14 00:31:38;;;;;;;383.77;265.83;;;;;;;21.44;88.12;99396.13;409747;24;1099;-75
2022/06/14 00:31:48;;;;;;;382.80;264.23;;;;;;;21.42;88.29;99398.09;413551;23;1139;-75
2022/06/14 00:31:59;;;;;;;380.85;262.83;;;;;;;21.40;88.27;99389.38;409896;24;787;-75
2022/06/14 00:32:09;;;;;;;381.77;265.03;;;;;;;21.40;87.81;99394.72;409737;24;1055;-75
2022/06/14 00:32:19;;;;;;;382.00;266.23;;;;;;;21.41;87.95;99391.06;407751;24;1283;-75
2022/06/14 00:32:30;;;;;;;381.97;267.00;;;;;;;21.41;87.95;99385.75;409593;24;786;-75
2022/06/14 00:32:41;;;;;;;381.20;262.67;;;;;;;21.40;88.19;99389.38;409819;24;1283;-75
2022/06/14 00:32:51;;;;;;;382.70;264.50;;;;;;;21.41;88.03;99391.06;409674;24;1155;-75
2022/06/14 00:33:02;;;;;;;382.65;266.20;;;;;;;21.42;88.17;99391.91;411867;24;832;-75
2022/06/14 00:33:12;;;;;;;386.77;268.50;;;;;;;21.40;88.58;99389.38;411795;24;874;-75
2022/06/14 00:33:23;;;;;;;386.35;264.15;;;;;;;21.39;88.49;99398.34;411804;24;1170;-75
2022/06/14 00:33:33;;;;;;;386.77;263.90;;;;;;;21.37;88.12;99384.34;409892;24;857;-75
2022/06/14 00:33:44;;;;;;;379.38;260.83;;;;;;;21.38;88.41;99386.03;411832;24;726;-75
2022/06/14 00:33:54;;;;;;;380.03;264.23;;;;;;;21.40;88.20;99388.53;411831;24;811;-75
2022/06/14 00:34:04;;;;;;;381.20;262.65;;;;;;;21.40;88.65;99391.22;413734;23;933;-75
2022/06/14 00:34:15;;;;;;;384.13;267.03;;;;;;;21.41;88.52;99391.06;413606;23;1292;-75
2022/06/14 00:34:25;;;;;;;382.80;265.52;;;;;;;21.41;88.27;99390.22;411619;24;1211;-75
2022/06/14 00:34:36;;;;;;;381.70;266.33;;;;;;;21.41;88.35;99390.22;413804;23;916;-75
2022/06/14 00:34:47;;;;;;;381.33;265.73;;;;;;;21.41;88.19;99391.06;413613;23;921;-75
2022/06/14 00:34:57;;;;;;;379.85;267.42;;;;;;;21.41;88.35;99399.06;413717;23;936;-75
2022/06/14 00:35:08;;;;;;;380.77;266.37;;;;;;;21.40;88.38;99384.06;413629;23;886;-75
2022/06/14 00:35:18;;;;;;;382.13;266.65;;;;;;;21.42;88.12;99391.91;413740;23;786;-75
2022/06/14 00:35:29;;;;;;;383.53;264.33;;;;;;;21.42;88.35;99392.75;409936;24;881;-76
2022/06/14 00:35:39;;;;;;;380.63;262.25;;;;;;;21.41;88.05;99391.06;413610;23;1363;-76
2022/06/14 00:35:57;;;;;;;380.70;263.87;;;;;;;21.41;88.50;99390.22;409863;24;969;-76
2022/06/14 00:36:31;;;;;;;382.48;264.73;;;;;;;21.40;88.19;99399.19;413551;23;909;-76
2022/06/14 00:36:45;;;;;;;381.98;267.40;;;;;;;21.39;88.56;99394.84;413570;23;865;-76
2022/06/14 00:36:56;;;;;;;383.02;265.58;;;;;;;21.39;88.33;99394.84;409601;24;1721;-76
2022/06/14 00:37:10;;;;;;;382.90;262.45;;;;;;;21.40;88.10;99393.88;411822;24;1016;-76
2022/06/14 00:37:21;;;;;;;381.50;264.58;;;;;;;21.36;88.81;99392.47;409823;24;1000;-76
2022/06/14 00:37:31;;;;;;;379.97;264.17;;;;;;;21.37;88.59;99400.31;409892;24;895;-76
2022/06/14 00:37:42;;;;;;;376.57;260.13;;;;;;;21.37;88.48;99400.31;409848;24;841;-76
2022/06/14 00:37:52;;;;;;;377.10;258.42;;;;;;;21.38;88.51;99390.50;411701;24;978;-76
2022/06/14 00:38:03;;;;;;;379.27;263.27;;;;;;;21.38;88.69;99391.34;411859;24;799;-76
2022/06/14 00:38:14;;;;;;;379.88;266.00;;;;;;;21.37;88.55;99392.31;411606;24;923;-76
2022/06/14 00:38:25;;;;;;;379.45;263.83;;;;;;;21.39;88.69;99402.84;409758;24;1612;-76
2022/06/14 00:38:36;;;;;;;377.80;261.45;;;;;;;21.39;88.64;99390.38;413394;23;1298;-76
2022/06/14 00:38:46;;;;;;;378.08;262.30;;;;;;;21.39;88.66;99393.03;415620;23;1097;-76
2022/06/14 00:38:59;;;;;;;379.10;266.70;;;;;;;21.39;88.45;99398.34;413609;23;909;-75
2022/06/14 00:39:11;;;;;;;382.23;269.38;;;;;;;21.40;88.33;99389.38;411762;24;882;-75
2022/06/14 00:39:21;;;;;;;382.83;265.83;;;;;;;21.39;88.56;99395.69;409688;24;1251;-75
2022/06/14 00:39:32;;;;;;;381.42;263.98;;;;;;;21.39;88.44;99395.69;413588;23;917;-75
2022/06/14 00:39:42;;;;;;;383.03;267.03;;;;;;;21.39;88.54;99398.34;411651;24;1171;-75
2022/06/14 00:39:52;;;;;;;383.15;266.65;;;;;;;21.41;88.55;99396.41;411548;24;816;-75
2022/06/14 00:40:04;;;;;;;382.90;265.90;;;;;;;21.38;88.62;99394.00;408999;24;1908;-75
2022/06/14 00:40:17;;;;;;;380.52;263.35;;;;;;;21.38;88.26;99393.16;407785;24;998;-75
2022/06/14 00:40:30;;;;;;;380.85;261.10;;;;;;;21.38;88.42;99391.34;409755;24;889;-75
2022/06/14 00:40:41;;;;;;;381.70;262.40;;;;;;;21.38;88.29;99402.00;407934;24;1437;-75
2022/06/14 00:40:55;;;;;;;379.52;264.77;;;;;;;21.37;88.22;99394.97;408280;24;1462;-75
2022/06/14 00:41:05;;;;;;;379.50;263.67;;;;;;;21.34;88.11;99395.25;409623;24;941;-75
2022/06/14 00:41:34;;;;;;;378.80;262.50;;;;;;;21.36;88.04;99395.13;411596;24;1281;-75
2022/06/14 00:41:46;;;;;;;376.17;260.40;;;;;;;21.34;88.28;99387.28;409827;24;836;-75
2022/06/14 00:41:57;;;;;;;378.83;263.45;;;;;;;21.35;88.54;99394.28;411962;24;1210;-75
2022/06/14 00:42:16;;;;;;;381.42;261.98;;;;;;;21.35;88.37;99388.94;409752;23;1381;-75
2022/06/14 00:42:27;;;;;;;383.20;262.90;;;;;;;21.36;88.48;99390.63;411625;24;937;-75
2022/06/14 00:42:37;;;;;;;382.00;263.93;;;;;;;21.33;88.57;99388.25;411795;24;873;-75
2022/06/14 00:42:48;;;;;;;383.48;265.77;;;;;;;21.34;88.69;99399.75;409737;24;1055;-75
2022/06/14 00:43:02;;;;;;;382.03;266.47;;;;;;;21.35;88.74;99396.94;411747;24;807;-75
2022/06/14 00:43:14;;;;;;;380.60;262.42;;;;;;;21.34;88.65;99389.94;411836;24;909;-75
2022/06/14 00:43:25;;;;;;;382.04;263.16;;;;;;;21.34;88.39;99389.94;413547;23;1265;-75
2022/06/14 00:43:35;;;;;;;381.20;263.10;;;;;;;21.33;88.40;99396.22;411675;23;1343;-75
2022/06/14 00:43:46;;;;;;;382.17;265.90;;;;;;;21.36;88.54;99389.78;411831;24;876;-75
2022/06/14 00:43:56;;;;;;;382.30;267.97;;;;;;;21.35;88.15;99391.63;411708;24;1258;-75
2022/06/14 00:44:11;;;;;;;378.77;264.40;;;;;;;21.34;88.28;99389.94;411795;24;783;-75
2022/06/14 00:44:26;;;;;;;378.35;260.50;;;;;;;21.33;87.91;99393.56;411661;24;877;-76
2022/06/14 00:44:36;;;;;;;378.23;260.55;;;;;;;21.33;88.24;99396.22;411855;24;869;-76
2022/06/14 00:45:05;;;;;;;377.30;260.50;;;;;;;21.32;88.08;99391.88;413576;23;1187;-76
2022/06/14 00:45:18;;;;;;;382.25;265.67;;;;;;;21.32;88.10;99386.56;413739;23;1570;-76
2022/06/14 00:45:28;;;;;;;381.55;265.42;;;;;;;21.32;87.59;99394.53;413749;23;852;-76
2022/06/14 00:45:38;;;;;;;381.73;266.00;;;;;;;21.31;87.90;99394.69;413874;23;813;-76
2022/06/14 00:45:49;;;;;;;380.47;263.17;;;;;;;21.31;87.65;99394.69;413662;23;1913;-76
2022/06/14 00:46:14;;;;;;;380.25;263.25;;;;;;;21.29;87.88;99396.63;413450;23;856;-76
2022/06/14 00:46:33;;;;;;;380.67;264.73;;;;;;;21.29;88.04;99397.47;413544;23;933;-76
2022/06/14 00:46:48;;;;;;;383.55;269.80;;;;;;;21.28;87.46;99393.13;412775;23;918;-75
2022/06/14 00:47:00;;;;;;;382.95;269.25;;;;;;;21.29;87.68;99392.16;413597;23;989;-76
2022/06/14 00:47:13;;;;;;;383.67;270.08;;;;;;;21.30;87.49;99390.34;413675;23;1375;-76
2022/06/14 00:47:24;;;;;;;383.10;271.75;;;;;;;21.31;87.30;99400.00;411860;24;898;-76
2022/06/14 00:47:42;;;;;;;383.48;272.83;;;;;;;21.28;87.71;99400.28;409903;24;821;-75
2022/06/14 00:47:59;;;;;;;383.27;272.95;;;;;;;21.28;87.42;99400.28;411543;24;976;-75
2022/06/14 00:48:18;;;;;;;382.70;268.08;;;;;;;21.25;87.55;99396.91;409757;24;867;-75
2022/06/14 00:48:29;;;;;;;376.30;262.25;;;;;;;21.25;87.82;99401.38;409775;24;937;-75
2022/06/14 00:48:40;;;;;;;377.88;263.30;;;;;;;21.27;87.89;99398.59;408033;24;1183;-75
2022/06/14 00:48:55;;;;;;;379.83;265.50;;;;;;;21.27;87.65;99396.78;408012;24;900;-75
2022/06/14 00:49:11;;;;;;;377.75;265.85;;;;;;;21.23;87.34;99393.53;411223;24;956;-76
2022/06/14 00:49:49;;;;;;;381.50;271.10;;;;;;;21.24;87.42;99399.72;413503;23;943;-76
2022/06/14 00:50:00;;;;;;;378.17;264.15;;;;;;;21.24;87.55;99407.69;410076;23;1230;-76
2022/06/14 00:50:18;;;;;;;378.35;262.58;;;;;;;21.20;87.37;99398.28;409846;24;925;-76
2022/06/14 00:50:37;;;;;;;379.83;264.45;;;;;;;21.19;87.94;99407.25;409847;24;1363;-76
2022/06/14 00:51:12;;;;;;;378.63;263.25;;;;;;;21.16;88.22;99402.19;409636;24;929;-76
2022/06/14 00:51:25;;;;;;;380.00;264.40;;;;;;;21.15;87.92;99404.03;409738;24;1358;-76
2022/06/14 00:51:43;;;;;;;380.15;265.20;;;;;;;21.14;87.56;99401.50;410041;24;1213;-76
2022/06/14 00:52:03;;;;;;;380.73;265.60;;;;;;;21.11;87.66;99399.94;407945;24;946;-76
2022/06/14 00:52:21;;;;;;;383.38;266.85;;;;;;;21.18;87.16;99408.22;409592;24;1472;-76
2022/06/14 00:52:42;;;;;;;382.45;264.15;;;;;;;21.17;87.03;99410.06;409973;24;925;-75
2022/06/14 00:52:58;;;;;;;379.67;264.17;;;;;;;21.15;87.11;99404.03;409771;24;1207;-75
2022/06/14 00:53:14;;;;;;;381.08;261.77;;;;;;;21.15;87.42;99408.50;409742;24;1109;-75
2022/06/14 00:53:28;;;;;;;382.92;262.88;;;;;;;21.15;87.22;99408.50;409977;24;934;-75
2022/06/14 00:53:42;;;;;;;385.38;268.10;;;;;;;21.15;86.95;99400.50;411586;24;1066;-75
2022/06/14 00:54:03;;;;;;;384.73;267.25;;;;;;;21.15;87.29;99405.84;411703;24;1059;-75
2022/06/14 00:54:21;;;;;;;379.13;263.88;;;;;;;21.13;87.14;99399.81;415457;23;1337;-75
2022/06/14 00:54:34;;;;;;;379.00;264.35;;;;;;;21.14;86.63;99401.50;411668;24;1039;-75
2022/06/14 00:54:47;;;;;;;383.33;268.80;;;;;;;21.16;86.52;99407.53;411754;24;952;-75
2022/06/14 00:55:01;;;;;;;382.27;267.48;;;;;;;21.15;86.74;99403.19;413481;23;972;-75
2022/06/14 00:55:38;;;;;;;379.70;263.02;;;;;;;21.16;86.71;99408.38;413551;23;1111;-75
2022/06/14 00:55:51;;;;;;;378.17;259.60;;;;;;;21.13;86.48;99407.78;407670;24;1119;-75
2022/06/14 00:56:06;;;;;;;381.73;264.83;;;;;;;21.10;86.37;99413.38;406053;24;1368;-75
2022/06/14 00:56:23;;;;;;;382.20;264.85;;;;;;;21.11;86.59;99404.41;411586;24;925;-75
2022/06/14 00:56:39;;;;;;;380.52;262.80;;;;;;;21.13;86.39;99402.47;411500;23;1034;-75
2022/06/14 00:56:53;;;;;;;380.23;267.88;;;;;;;21.13;86.72;99407.78;411810;24;854;-75